Time;durP1;ratioP1;P1;durP2;ratioP2;P2;SDS_P1;SDS_P2;PMS_P1;PMS_P2;Temp;Humidity;BMP_temperature;BMP_pressure;BME280_temperature;BME280_humidity;BME280_pressure;Samples;Min_cycle;Max_cycle;Signal;HPM_P1;HPM_P2
2021/04/21 00:00:00;;;;;;;13.40;9.33;;;;;;;11.89;41.98;101176.03;5019503;28;20421;-68
2021/04/21 00:02:26;;;;;;;10.53;9.27;;;;;;;11.49;43.38;101177.25;5018675;28;20768;-68
2021/04/21 00:04:53;;;;;;;13.53;9.27;;;;;;;11.49;43.20;101180.78;5019517;28;20175;-67
2021/04/21 00:07:19;;;;;;;10.53;8.67;;;;;;;11.46;43.82;101176.38;5020107;28;20788;-67
2021/04/21 00:09:51;;;;;;;11.13;9.77;;;;;;;11.41;44.19;101175.44;5003181;28;20505;-68
2021/04/21 00:12:17;;;;;;;10.50;9.40;;;;;;;11.53;43.76;101166.91;5019181;28;20413;-67
2021/04/21 00:14:44;;;;;;;13.33;10.60;;;;;;;11.51;44.08;101167.72;5019920;28;20520;-67
2021/04/21 00:17:11;;;;;;;11.10;9.30;;;;;;;11.51;44.08;101163.38;5001763;28;20195;-67
2021/04/21 00:19:37;;;;;;;16.40;9.80;;;;;;;11.39;44.55;101164.13;5018801;28;20743;-67
2021/04/21 00:22:04;;;;;;;11.80;9.50;;;;;;;11.23;44.91;101164.75;5022293;28;20413;-67
2021/04/21 00:24:31;;;;;;;14.13;11.00;;;;;;;11.44;45.09;101170.25;5011730;28;20548;-67
2021/04/21 00:26:57;;;;;;;11.40;9.70;;;;;;;11.36;44.67;101158.84;5016902;28;21023;-67
2021/04/21 00:29:23;;;;;;;10.80;9.70;;;;;;;11.02;46.12;101163.59;5018926;28;20434;-68
2021/04/21 00:31:49;;;;;;;11.10;9.47;;;;;;;11.06;45.82;101159.31;5018850;28;20599;-68
2021/04/21 00:34:17;;;;;;;11.77;10.50;;;;;;;11.21;45.25;101164.72;5018963;28;20410;-68
2021/04/21 00:36:47;;;;;;;12.60;10.20;;;;;;;11.17;45.76;101168.16;5019265;28;20410;-67
2021/04/21 00:39:13;;;;;;;11.53;9.67;;;;;;;10.91;45.71;101162.56;5018932;28;20480;-68
2021/04/21 00:41:55;;;;;;;13.67;10.10;;;;;;;10.82;46.24;101163.28;5018561;28;20409;-69
2021/04/21 00:44:40;;;;;;;10.97;9.73;;;;;;;11.16;45.88;101162.91;5018660;28;20603;-67
2021/04/21 00:47:08;;;;;;;19.90;9.90;;;;;;;10.86;46.75;101156.41;5019450;28;20823;-67
2021/04/21 00:50:01;;;;;;;11.00;9.90;;;;;;;10.92;46.63;101148.69;5019445;28;20688;-67
2021/04/21 00:52:45;;;;;;;12.73;10.53;;;;;;;11.18;45.98;101156.88;5010674;28;20517;-67
2021/04/21 00:55:17;;;;;;;12.10;10.40;;;;;;;10.92;46.78;101153.91;5019300;28;20410;-66
2021/04/21 00:57:44;;;;;;;11.17;9.93;;;;;;;10.65;46.76;101147.41;5019245;28;20453;-67
2021/04/21 01:00:14;;;;;;;12.33;10.20;;;;;;;10.72;46.53;101151.84;5019006;28;20414;-66
2021/04/21 01:02:43;;;;;;;13.07;9.90;;;;;;;10.83;47.02;101156.34;5018346;28;20476;-67
2021/04/21 01:05:14;;;;;;;11.63;10.33;;;;;;;10.81;46.83;101153.72;5018338;28;20417;-66
2021/04/21 01:07:45;;;;;;;12.70;10.47;;;;;;;10.79;46.68;101152.81;5006023;28;20453;-66
2021/04/21 01:10:13;;;;;;;11.00;9.80;;;;;;;10.93;46.36;101153.91;4999839;28;20406;-68
2021/04/21 01:12:38;;;;;;;11.40;9.80;;;;;;;10.62;47.16;101155.16;4998475;28;20688;-67
2021/04/21 01:15:06;;;;;;;12.87;10.63;;;;;;;10.84;46.36;101151.16;4998453;28;20415;-67
2021/04/21 01:17:33;;;;;;;13.90;9.40;;;;;;;10.87;45.94;101155.56;5015182;28;20266;-66
2021/04/21 01:19:58;;;;;;;11.50;10.00;;;;;;;10.69;46.29;101159.63;4998423;28;20824;-67
2021/04/21 01:22:48;;;;;;;11.93;9.87;;;;;;;10.71;46.08;101152.69;4999118;28;20455;-67
2021/04/21 01:25:20;;;;;;;11.53;10.10;;;;;;;10.72;46.31;101149.25;4998306;28;20289;-68
2021/04/21 01:27:45;;;;;;;11.50;9.80;;;;;;;10.54;46.32;101154.16;5014748;28;20431;-66
2021/04/21 01:30:14;;;;;;;13.40;9.60;;;;;;;10.70;45.91;101150.97;4998852;28;20468;-67
2021/04/21 01:32:42;;;;;;;12.03;9.77;;;;;;;10.71;45.79;101151.81;4999021;28;20172;-66
2021/04/21 01:35:08;;;;;;;11.60;9.63;;;;;;;10.57;45.80;101149.00;4998755;28;20425;-66
2021/04/21 01:37:35;;;;;;;11.13;9.90;;;;;;;10.61;45.62;101143.84;4998182;28;20414;-66
2021/04/21 01:40:06;;;;;;;11.93;10.20;;;;;;;10.42;45.92;101147.88;4998724;28;20423;-66
2021/04/21 01:42:35;;;;;;;14.17;10.63;;;;;;;10.34;46.51;101157.28;5005341;28;20466;-66
2021/04/21 01:45:00;;;;;;;10.97;9.80;;;;;;;10.47;46.00;101149.69;5013787;28;20415;-68
2021/04/21 01:47:26;;;;;;;14.10;10.70;;;;;;;10.34;46.08;101146.00;4998497;28;20414;-67
2021/04/21 01:49:54;;;;;;;13.00;9.93;;;;;;;10.24;46.10;101145.81;4999487;28;20221;-67
2021/04/21 01:52:54;;;;;;;12.33;10.13;;;;;;;10.39;45.69;101149.56;4997963;28;20171;-67
2021/04/21 01:55:19;;;;;;;12.37;9.90;;;;;;;10.53;45.41;101139.38;4998588;28;20414;-68
2021/04/21 01:57:49;;;;;;;11.87;9.37;;;;;;;10.49;45.06;101145.41;4998794;28;20381;-68
2021/04/21 02:00:31;;;;;;;10.27;9.37;;;;;;;10.53;45.26;101147.19;4998007;28;20452;-67
2021/04/21 02:03:25;;;;;;;14.33;10.73;;;;;;;10.60;44.58;101143.84;4998730;28;20899;-68
2021/04/21 02:06:21;;;;;;;10.70;9.53;;;;;;;10.28;44.93;101146.72;4998929;28;20773;-70
2021/04/21 02:09:01;;;;;;;11.33;9.17;;;;;;;10.20;45.83;101146.63;5014363;28;20507;-69
2021/04/21 02:11:29;;;;;;;12.23;10.60;;;;;;;10.28;45.68;101139.81;4999059;28;20410;-68
2021/04/21 02:14:03;;;;;;;14.87;9.50;;;;;;;10.29;45.77;101138.06;5014461;28;20417;-68
2021/04/21 02:16:50;;;;;;;12.90;9.60;;;;;;;10.25;45.45;101147.56;4998585;28;20512;-67
2021/04/21 02:19:27;;;;;;;15.30;9.80;;;;;;;10.29;45.16;101140.69;5016638;28;20417;-69
2021/04/21 02:22:22;;;;;;;10.80;9.40;;;;;;;10.29;45.43;101138.06;4999866;28;20816;-67
2021/04/21 02:24:58;;;;;;;11.33;9.70;;;;;;;10.25;44.65;101141.47;4997700;28;20482;-69
2021/04/21 02:27:45;;;;;;;10.83;9.63;;;;;;;10.27;45.40;101138.06;5001326;28;20819;-68
2021/04/21 02:30:18;;;;;;;12.47;10.07;;;;;;;10.16;45.43;101137.00;5017755;28;20471;-68
2021/04/21 02:32:59;;;;;;;11.07;9.73;;;;;;;10.12;45.30;101135.19;5001586;28;20422;-67
2021/04/21 02:35:29;;;;;;;10.27;8.90;;;;;;;10.09;45.96;101135.09;5001585;28;20421;-68
2021/04/21 02:38:22;;;;;;;11.17;9.47;;;;;;;10.06;45.13;101130.72;5001425;28;20452;-67
2021/04/21 02:40:59;;;;;;;11.70;10.03;;;;;;;10.07;45.50;101135.09;5001987;28;20411;-67
2021/04/21 02:43:32;;;;;;;11.77;9.80;;;;;;;10.17;45.30;101137.88;5017595;28;20504;-68
2021/04/21 02:46:04;;;;;;;11.47;10.33;;;;;;;10.00;46.05;101135.84;5001259;28;20441;-69
2021/04/21 02:48:48;;;;;;;17.30;9.60;;;;;;;10.15;45.26;101135.22;5001749;28;20410;-68
2021/04/21 02:51:24;;;;;;;11.13;9.40;;;;;;;9.98;45.33;101131.44;5001707;28;20414;-68
2021/04/21 02:54:07;;;;;;;12.57;10.00;;;;;;;10.01;45.41;101135.00;5002221;28;20835;-67
2021/04/21 02:56:41;;;;;;;12.00;9.23;;;;;;;9.90;45.48;101133.91;5017339;28;20460;-68
2021/04/21 02:59:28;;;;;;;12.53;10.23;;;;;;;10.13;44.93;101141.25;5001751;28;20429;-68
2021/04/21 03:01:57;;;;;;;12.07;9.63;;;;;;;10.09;45.00;101135.09;5020379;28;20410;-68
2021/04/21 03:04:37;;;;;;;13.47;9.63;;;;;;;10.10;45.56;101137.75;5005501;28;20470;-69
2021/04/21 03:07:04;;;;;;;11.17;9.90;;;;;;;10.24;45.39;101139.72;5017963;28;20847;-67
2021/04/21 03:09:38;;;;;;;14.60;10.27;;;;;;;10.21;45.21;101137.06;5001679;28;20721;-67
2021/04/21 03:12:04;;;;;;;17.63;14.20;;;;;;;10.06;46.18;101141.13;5000684;28;20517;-67
2021/04/21 03:14:33;;;;;;;14.13;10.73;;;;;;;9.78;46.42;101140.63;5017112;28;20495;-68
2021/04/21 03:17:00;;;;;;;11.90;10.47;;;;;;;10.16;46.11;101136.09;5000815;28;20449;-69
2021/04/21 03:19:32;;;;;;;32.10;22.30;;;;;;;9.92;47.31;101137.44;5001447;28;20700;-67
2021/04/21 03:22:04;;;;;;;17.13;10.60;;;;;;;10.08;46.35;101126.44;5017420;28;20406;-69
2021/04/21 03:24:34;;;;;;;12.13;10.03;;;;;;;9.97;47.07;101127.94;5000497;28;20553;-68
2021/04/21 03:27:02;;;;;;;14.93;10.70;;;;;;;9.94;47.30;101125.28;5016947;28;20439;-68
2021/04/21 03:29:34;;;;;;;23.37;17.30;;;;;;;9.97;47.70;101124.47;5016793;28;20847;-67
2021/04/21 03:32:03;;;;;;;16.10;13.53;;;;;;;9.94;47.77;101127.91;5001072;28;20415;-68
2021/04/21 03:34:29;;;;;;;12.43;10.77;;;;;;;9.83;47.70;101121.63;5016883;28;20518;-67
2021/04/21 03:36:54;;;;;;;12.10;10.70;;;;;;;9.96;47.74;101121.00;5015828;28;20835;-68
2021/04/21 03:39:20;;;;;;;12.50;11.17;;;;;;;9.81;48.27;101121.59;5016754;28;20450;-67
2021/04/21 03:41:45;;;;;;;14.43;11.10;;;;;;;9.68;48.22;101115.25;5001413;28;20179;-68
2021/04/21 03:44:12;;;;;;;20.13;12.47;;;;;;;9.83;48.05;101121.63;5006342;28;20223;-67
2021/04/21 03:46:37;;;;;;;15.93;12.10;;;;;;;9.71;48.53;101122.25;5001257;28;20190;-67
2021/04/21 03:49:06;;;;;;;13.13;11.50;;;;;;;9.77;48.70;101120.66;5000918;28;20415;-68
2021/04/21 03:51:32;;;;;;;12.97;11.60;;;;;;;9.81;48.65;101119.00;5000718;28;20172;-68
2021/04/21 03:53:57;;;;;;;12.37;11.00;;;;;;;9.78;48.87;101119.81;5016888;28;20677;-68
2021/04/21 03:56:24;;;;;;;12.60;11.30;;;;;;;9.74;48.94;101120.59;5016387;28;20186;-68
2021/04/21 03:58:52;;;;;;;16.73;12.30;;;;;;;9.99;48.17;101118.44;5000611;28;20180;-67
2021/04/21 04:01:20;;;;;;;16.20;11.50;;;;;;;9.64;48.91;101115.19;5016596;28;20445;-67
2021/04/21 04:03:50;;;;;;;16.20;13.90;;;;;;;9.65;49.32;101116.91;5000582;28;20509;-67
2021/04/21 04:06:33;;;;;;;14.27;12.43;;;;;;;9.68;49.61;101112.66;5000679;28;20862;-67
2021/04/21 04:09:02;;;;;;;17.50;12.37;;;;;;;9.81;49.35;101116.38;5016142;28;20438;-67
2021/04/21 04:11:38;;;;;;;17.80;13.10;;;;;;;9.80;49.60;101117.22;4999706;28;20450;-67
2021/04/21 04:14:20;;;;;;;16.27;12.20;;;;;;;9.76;50.06;101116.28;5000448;28;20855;-68
2021/04/21 04:16:46;;;;;;;15.60;12.40;;;;;;;9.95;49.39;101117.50;5001071;28;20429;-68
2021/04/21 04:19:12;;;;;;;14.60;12.43;;;;;;;10.00;49.75;101114.09;5016066;28;20491;-67
2021/04/21 04:21:39;;;;;;;16.73;12.47;;;;;;;9.94;50.18;101107.06;5019822;28;20818;-68
2021/04/21 04:24:08;;;;;;;18.50;13.00;;;;;;;9.89;50.59;101113.91;5019909;28;20484;-67
2021/04/21 04:26:35;;;;;;;18.33;13.40;;;;;;;10.10;49.88;101106.47;5019630;28;20426;-67
2021/04/21 04:29:02;;;;;;;16.70;12.70;;;;;;;10.17;49.39;101107.47;5003053;28;20717;-66
2021/04/21 04:31:27;;;;;;;15.90;13.37;;;;;;;9.99;50.30;101112.38;5019511;28;20414;-68
2021/04/21 04:33:53;;;;;;;17.93;13.20;;;;;;;10.17;50.03;101114.41;5002639;28;20428;-70
2021/04/21 04:36:19;;;;;;;17.13;13.53;;;;;;;10.24;49.60;101114.56;5003014;28;20177;-68
2021/04/21 04:38:45;;;;;;;14.90;12.87;;;;;;;10.37;49.60;101117.41;5019640;28;20254;-68
2021/04/21 04:41:10;;;;;;;16.63;13.20;;;;;;;10.22;49.81;101124.06;5002304;28;20170;-68
2021/04/21 04:43:36;;;;;;;16.63;13.00;;;;;;;10.03;50.62;101122.84;5003056;28;20264;-67
2021/04/21 04:46:02;;;;;;;15.67;11.97;;;;;;;10.24;50.09;101121.47;5002865;28;20186;-69
2021/04/21 04:48:51;;;;;;;16.23;12.60;;;;;;;10.37;50.06;101117.41;5002768;28;20206;-68
2021/04/21 04:51:18;;;;;;;15.83;13.67;;;;;;;10.31;49.95;101120.75;4997226;28;20199;-68
2021/04/21 04:53:43;;;;;;;15.37;13.00;;;;;;;10.35;50.20;101121.69;5002266;28;20866;-69
2021/04/21 04:56:09;;;;;;;16.23;12.90;;;;;;;10.59;49.93;101114.28;5019561;28;20418;-68
2021/04/21 04:58:35;;;;;;;17.40;13.77;;;;;;;10.55;50.07;101117.69;5017303;28;20182;-67
2021/04/21 05:01:09;;;;;;;16.67;14.90;;;;;;;10.77;49.77;101118.91;5008982;28;20182;-67
2021/04/21 05:03:40;;;;;;;17.00;13.00;;;;;;;11.09;49.07;101115.84;5002366;28;20446;-67
2021/04/21 05:06:05;;;;;;;15.60;13.67;;;;;;;10.65;49.90;101130.84;4984042;28;20470;-68
2021/04/21 05:08:43;;;;;;;14.70;13.20;;;;;;;10.88;49.63;101134.69;4998592;28;20737;-67
2021/04/21 05:11:12;;;;;;;16.67;14.00;;;;;;;10.78;50.27;101128.47;5001868;28;20182;-68
2021/04/21 05:13:40;;;;;;;16.80;14.00;;;;;;;10.81;50.55;101129.38;5018120;28;20418;-68
2021/04/21 05:16:05;;;;;;;17.60;14.50;;;;;;;10.97;50.27;101128.72;5018249;28;20476;-67
2021/04/21 05:18:56;;;;;;;17.27;15.43;;;;;;;11.04;50.29;101125.38;4998833;28;20434;-68
2021/04/21 05:22:04;;;;;;;17.60;14.33;;;;;;;11.08;50.12;101124.56;5002855;28;20195;-68
2021/04/21 05:24:39;;;;;;;21.20;14.13;;;;;;;11.05;50.85;101141.88;5006466;28;20493;-68
2021/04/21 05:27:26;;;;;;;20.63;14.03;;;;;;;11.46;49.86;101129.38;5009657;28;20420;-69
2021/04/21 05:30:29;;;;;;;17.43;14.53;;;;;;;11.26;50.30;101130.88;5016706;28;20697;-68
2021/04/21 05:33:28;;;;;;;18.90;13.77;;;;;;;11.67;49.00;101137.47;5009090;28;20438;-67
2021/04/21 05:36:12;;;;;;;17.83;14.70;;;;;;;11.68;49.11;101132.25;5008836;28;20466;-69
2021/04/21 05:39:18;;;;;;;20.37;15.33;;;;;;;11.62;49.28;101135.69;5018266;28;20413;-66
2021/04/21 05:42:24;;;;;;;16.53;14.83;;;;;;;12.26;48.41;101132.00;5018262;28;20436;-68
2021/04/21 05:45:11;;;;;;;20.43;14.60;;;;;;;13.40;45.42;101131.91;5015674;28;20514;-67
2021/04/21 05:47:45;;;;;;;18.07;15.00;;;;;;;15.08;41.53;101131.19;5017748;28;20417;-68
2021/04/21 05:50:38;;;;;;;14.63;13.10;;;;;;;16.42;38.60;101126.09;5018053;28;20449;-68
2021/04/21 05:53:45;;;;;;;18.60;14.03;;;;;;;16.10;38.99;101120.22;5014419;28;20683;-72
2021/04/21 05:56:32;;;;;;;14.33;12.93;;;;;;;16.94;36.75;101116.84;5016903;28;20793;-65
2021/04/21 05:59:30;;;;;;;17.47;13.87;;;;;;;17.14;37.02;101116.63;5033910;28;20432;-66
2021/04/21 06:01:56;;;;;;;16.07;12.80;;;;;;;18.97;33.28;101120.06;5017368;28;20502;-65
2021/04/21 06:04:24;;;;;;;14.40;11.20;;;;;;;18.45;34.24;101129.78;5017422;28;20469;-64
2021/04/21 06:06:49;;;;;;;13.20;11.80;;;;;;;18.67;33.77;101122.34;5018027;28;20424;-65
2021/04/21 06:09:14;;;;;;;15.93;12.80;;;;;;;19.41;32.67;101120.09;5018052;28;20414;-65
2021/04/21 06:11:40;;;;;;;15.83;14.10;;;;;;;18.88;33.39;101114.94;5018329;28;20171;-65
2021/04/21 06:14:07;;;;;;;14.97;13.57;;;;;;;18.70;33.43;101122.31;5018463;28;20412;-67
2021/04/21 06:16:34;;;;;;;15.13;13.63;;;;;;;18.82;33.29;101122.09;5018762;28;20224;-65
2021/04/21 06:19:03;;;;;;;14.20;12.80;;;;;;;19.42;31.94;101124.47;5017865;28;20431;-65
2021/04/21 06:21:30;;;;;;;16.13;14.47;;;;;;;20.97;29.95;101113.72;5017067;28;20414;-64
2021/04/21 06:23:56;;;;;;;16.00;14.40;;;;;;;19.67;32.00;101135.38;5017932;28;20481;-65
2021/04/21 06:26:24;;;;;;;33.40;14.63;;;;;;;19.64;31.56;101132.81;5018298;28;20488;-65
2021/04/21 06:29:06;;;;;;;14.43;12.90;;;;;;;21.14;28.79;101119.41;5017708;28;20810;-65
2021/04/21 06:31:49;;;;;;;17.30;13.43;;;;;;;21.30;28.35;101126.94;5017041;28;20699;-65
2021/04/21 06:34:14;;;;;;;16.70;13.40;;;;;;;22.00;27.73;101116.00;5017994;28;20823;-65
2021/04/21 06:36:45;;;;;;;15.17;13.70;;;;;;;21.38;28.02;101130.25;5018043;28;20418;-66
2021/04/21 06:39:12;;;;;;;18.90;17.00;;;;;;;20.90;28.86;101125.41;5017936;28;20229;-66
2021/04/21 06:41:38;;;;;;;15.73;14.23;;;;;;;21.22;28.86;101128.91;5017838;28;20422;-66
2021/04/21 06:44:04;;;;;;;15.47;13.97;;;;;;;20.13;30.27;101131.75;5018291;28;20808;-68
2021/04/21 06:46:30;;;;;;;14.50;13.17;;;;;;;20.07;30.82;101134.53;5016115;28;20857;-68
2021/04/21 06:48:58;;;;;;;14.57;13.07;;;;;;;19.63;31.21;101142.53;5012601;28;20470;-68
2021/04/21 06:51:27;;;;;;;14.83;13.33;;;;;;;20.24;30.56;101139.41;5032555;28;20300;-67
2021/04/21 06:53:54;;;;;;;14.27;12.97;;;;;;;20.74;29.92;101136.41;5012979;28;20509;-65
2021/04/21 06:56:30;;;;;;;14.73;12.87;;;;;;;20.78;29.61;101137.19;5000435;28;20423;-65
2021/04/21 06:58:56;;;;;;;14.30;12.90;;;;;;;19.83;30.80;101150.03;5016256;28;20450;-68
2021/04/21 07:01:40;;;;;;;15.17;13.70;;;;;;;19.77;31.18;101150.16;4999699;28;20430;-66
2021/04/21 07:04:18;;;;;;;17.50;13.10;;;;;;;21.06;29.44;101139.97;5007751;28;20256;-67
2021/04/21 07:06:45;;;;;;;15.43;13.93;;;;;;;21.58;28.83;101136.75;5020390;28;20490;-66
2021/04/21 07:09:14;;;;;;;15.10;13.23;;;;;;;21.13;29.18;101135.38;5016305;28;20841;-66
2021/04/21 07:11:44;;;;;;;14.60;13.20;;;;;;;22.32;27.87;101142.41;5016148;28;20511;-67
2021/04/21 07:14:10;;;;;;;13.17;11.87;;;;;;;21.11;29.43;101132.75;5018944;28;20445;-67
2021/04/21 07:16:37;;;;;;;14.47;13.00;;;;;;;21.58;28.83;101129.69;5017784;28;20469;-66
2021/04/21 07:19:12;;;;;;;15.80;14.30;;;;;;;22.53;28.04;101128.44;5023091;28;20449;-67
2021/04/21 07:21:40;;;;;;;15.80;14.00;;;;;;;21.66;28.47;101146.25;5001298;28;20452;-66
2021/04/21 07:24:07;;;;;;;13.23;11.60;;;;;;;21.87;28.11;101144.69;5012610;28;20766;-66
2021/04/21 07:26:33;;;;;;;14.40;13.00;;;;;;;22.42;27.79;101137.69;5015744;28;20422;-67
2021/04/21 07:28:59;;;;;;;12.23;11.10;;;;;;;22.77;27.26;101143.56;5019888;28;20413;-66
2021/04/21 07:31:25;;;;;;;12.00;10.80;;;;;;;22.24;27.76;101137.34;5018806;28;20449;-68
2021/04/21 07:33:51;;;;;;;13.30;12.00;;;;;;;21.92;28.67;101141.03;5019924;28;20178;-67
2021/04/21 07:36:23;;;;;;;12.87;11.57;;;;;;;22.66;27.78;101135.97;5018778;28;20616;-67
2021/04/21 07:38:56;;;;;;;12.80;11.40;;;;;;;22.31;28.08;101138.00;5020268;28;20190;-66
2021/04/21 07:41:34;;;;;;;13.40;12.07;;;;;;;21.22;30.19;101137.75;5017039;28;20815;-68
2021/04/21 07:43:59;;;;;;;15.80;14.30;;;;;;;22.34;28.46;101137.94;5019353;28;20496;-69
2021/04/21 07:46:24;;;;;;;14.97;13.67;;;;;;;22.03;29.13;101149.53;5018961;28;20458;-67
2021/04/21 07:48:51;;;;;;;19.10;17.03;;;;;;;22.92;28.15;101144.81;5008209;28;20241;-67
2021/04/21 07:51:16;;;;;;;23.07;15.17;;;;;;;22.25;29.35;101147.03;5006814;28;20336;-68
2021/04/21 07:53:48;;;;;;;18.30;16.60;;;;;;;22.73;28.21;101156.09;5020241;28;20801;-68
2021/04/21 07:56:13;;;;;;;15.17;13.67;;;;;;;21.38;30.33;101156.75;5021945;28;20190;-67
2021/04/21 07:58:38;;;;;;;15.40;13.97;;;;;;;22.69;28.22;101159.78;5032304;28;20448;-66
2021/04/21 08:01:04;;;;;;;16.20;14.80;;;;;;;23.44;27.46;101163.38;5017108;28;20550;-69
2021/04/21 08:03:29;;;;;;;17.47;15.77;;;;;;;20.19;32.90;101168.63;5019008;28;20215;-67
2021/04/21 08:05:55;;;;;;;21.47;17.23;;;;;;;20.91;31.83;101166.91;5019325;28;20265;-66
2021/04/21 08:08:34;;;;;;;17.77;16.07;;;;;;;21.81;31.85;101167.91;5019111;28;20171;-67
2021/04/21 08:11:01;;;;;;;19.87;18.00;;;;;;;22.09;30.91;101164.41;5015471;28;20198;-66
2021/04/21 08:13:44;;;;;;;18.53;16.93;;;;;;;22.25;31.13;101164.78;5019762;28;20422;-68
2021/04/21 08:16:30;;;;;;;20.67;18.77;;;;;;;21.53;32.06;101174.03;5021737;28;20473;-67
2021/04/21 08:18:59;;;;;;;20.97;18.87;;;;;;;20.36;34.31;101184.13;5019543;28;20424;-68
2021/04/21 08:21:39;;;;;;;23.37;20.97;;;;;;;20.32;34.07;101179.81;5017631;28;20508;-67
2021/04/21 08:24:07;;;;;;;23.67;21.37;;;;;;;19.78;36.07;101191.59;5018437;28;20459;-67
2021/04/21 08:26:32;;;;;;;24.90;22.50;;;;;;;21.29;33.44;101179.09;5019508;28;20461;-66
2021/04/21 08:29:01;;;;;;;24.73;22.33;;;;;;;19.19;36.27;101199.81;5019549;28;20457;-66
2021/04/21 08:31:27;;;;;;;23.67;21.30;;;;;;;20.91;33.47;101188.09;5019348;28;20237;-67
2021/04/21 08:33:53;;;;;;;23.97;21.47;;;;;;;21.44;32.88;101199.00;5018706;28;20496;-67
2021/04/21 08:36:19;;;;;;;24.20;21.90;;;;;;;20.45;34.79;101198.91;5018529;28;20457;-66
2021/04/21 08:38:47;;;;;;;25.33;22.93;;;;;;;18.54;38.40;101215.88;5019101;28;20229;-68
2021/04/21 08:41:16;;;;;;;26.63;23.83;;;;;;;17.42;41.23;101224.38;5019289;28;20786;-67
2021/04/21 08:43:45;;;;;;;28.60;25.57;;;;;;;16.40;44.52;101231.38;5018531;28;20435;-67
2021/04/21 08:46:12;;;;;;;30.60;27.30;;;;;;;15.95;45.99;101236.00;5019238;28;20399;-67
2021/04/21 08:48:38;;;;;;;32.73;28.30;;;;;;;14.99;48.34;101236.22;5017778;28;20401;-67
2021/04/21 08:51:05;;;;;;;31.10;27.90;;;;;;;15.53;47.23;101243.16;5018890;28;20396;-67
2021/04/21 08:53:30;;;;;;;30.43;27.13;;;;;;;14.77;49.71;101238.00;5017371;28;20445;-66
2021/04/21 08:55:56;;;;;;;30.97;27.77;;;;;;;14.75;49.93;101238.00;5018948;28;20431;-66
2021/04/21 08:58:22;;;;;;;32.40;28.90;;;;;;;14.22;51.42;101242.25;5021233;28;20166;-65
2021/04/21 09:00:47;;;;;;;30.57;26.60;;;;;;;14.45;50.89;101237.06;4999854;28;20179;-65
2021/04/21 09:03:14;;;;;;;33.03;26.73;;;;;;;14.98;49.46;101226.63;5016305;28;20199;-66
2021/04/21 09:05:39;;;;;;;32.90;26.33;;;;;;;15.46;47.65;101235.28;5001027;28;20189;-66
2021/04/21 09:08:05;;;;;;;25.93;23.20;;;;;;;15.47;46.97;101223.03;5018054;28;20437;-66
2021/04/21 09:10:30;;;;;;;24.53;22.00;;;;;;;15.79;46.36;101230.78;5006417;28;20457;-67
2021/04/21 09:12:55;;;;;;;26.60;22.20;;;;;;;16.02;45.66;101227.22;4999233;28;20534;-67
2021/04/21 09:15:21;;;;;;;26.57;22.00;;;;;;;16.56;44.78;101216.38;5004488;28;20261;-67
2021/04/21 09:17:48;;;;;;;27.10;21.80;;;;;;;16.05;45.23;101224.56;5018084;28;20261;-67
2021/04/21 09:20:15;;;;;;;25.27;22.57;;;;;;;16.18;45.42;101220.09;5016200;28;20225;-66
2021/04/21 09:23:00;;;;;;;27.50;20.80;;;;;;;16.16;45.52;101220.13;5017647;28;20886;-65
2021/04/21 09:25:33;;;;;;;24.70;22.13;;;;;;;15.69;46.72;101233.47;5017662;28;20493;-64
2021/04/21 09:27:59;;;;;;;24.20;20.43;;;;;;;15.81;45.78;101222.94;5017500;28;20510;-64
2021/04/21 09:30:26;;;;;;;21.03;18.73;;;;;;;14.46;49.32;101233.56;5018084;28;20496;-66
2021/04/21 09:32:53;;;;;;;22.07;19.73;;;;;;;14.64;48.86;101227.50;5017411;28;20175;-67
2021/04/21 09:35:39;;;;;;;23.83;21.33;;;;;;;14.88;48.40;101232.75;5005329;28;20408;-65
2021/04/21 09:38:15;;;;;;;22.20;19.90;;;;;;;15.19;47.59;101232.72;5009437;28;20448;-66
2021/04/21 09:41:17;;;;;;;23.93;20.27;;;;;;;14.13;50.01;101237.00;5017292;28;20426;-66
2021/04/21 09:43:43;;;;;;;24.50;20.53;;;;;;;14.09;51.11;101236.09;5018063;28;20876;-68
2021/04/21 09:46:17;;;;;;;23.60;21.00;;;;;;;14.28;50.61;101231.78;5018303;28;20428;-65
2021/04/21 09:48:45;;;;;;;24.23;20.90;;;;;;;14.53;49.80;101229.22;5017261;28;20413;-66
2021/04/21 09:51:13;;;;;;;28.10;23.40;;;;;;;14.87;49.43;101241.47;5016563;28;20445;-68
2021/04/21 09:53:44;;;;;;;24.87;20.33;;;;;;;14.64;49.60;101238.00;5018074;28;20422;-64
2021/04/21 09:56:15;;;;;;;26.80;20.43;;;;;;;14.41;50.17;101234.41;5019924;28;20446;-66
2021/04/21 09:58:54;;;;;;;22.53;19.27;;;;;;;14.63;49.11;101238.00;5031845;28;20665;-66
2021/04/21 10:01:34;;;;;;;21.03;18.70;;;;;;;14.59;48.80;101231.81;5017920;28;20397;-67
2021/04/21 10:04:21;;;;;;;21.47;17.47;;;;;;;15.04;47.75;101223.09;5018287;28;20892;-65
2021/04/21 10:06:53;;;;;;;20.47;18.33;;;;;;;15.37;47.04;101224.81;5018654;28;20414;-67
2021/04/21 10:09:35;;;;;;;20.47;18.07;;;;;;;14.60;48.31;101228.34;5018111;28;20416;-66
2021/04/21 10:12:17;;;;;;;20.17;17.93;;;;;;;15.68;45.83;101226.44;5018812;28;20444;-67
2021/04/21 10:14:45;;;;;;;20.63;16.47;;;;;;;14.66;48.35;101235.38;5019542;28;20441;-65
2021/04/21 10:17:11;;;;;;;21.97;18.90;;;;;;;14.58;48.66;101239.69;5017508;28;20457;-65
2021/04/21 10:19:36;;;;;;;20.13;17.90;;;;;;;14.75;46.87;101231.88;4999712;28;20464;-66
2021/04/21 10:22:02;;;;;;;21.53;18.07;;;;;;;14.67;46.63;101239.75;5017722;28;20791;-66
2021/04/21 10:24:28;;;;;;;20.23;17.17;;;;;;;14.81;46.26;101232.72;5017724;28;20604;-67
2021/04/21 10:26:55;;;;;;;20.00;16.20;;;;;;;15.39;45.11;101233.53;5017759;28;20524;-66
2021/04/21 10:29:21;;;;;;;17.30;15.37;;;;;;;15.60;44.60;101231.72;5016548;28;20205;-66
2021/04/21 10:31:47;;;;;;;17.10;15.40;;;;;;;14.54;47.09;101243.19;5017655;28;20429;-65
2021/04/21 10:34:13;;;;;;;20.80;16.30;;;;;;;14.43;47.31;101246.66;5017668;28;20677;-66
2021/04/21 10:36:41;;;;;;;14.90;13.13;;;;;;;14.64;46.57;101247.63;5018022;28;20177;-67
2021/04/21 10:39:06;;;;;;;17.03;12.50;;;;;;;14.30;46.95;101237.00;5016571;28;20818;-66
2021/04/21 10:41:36;;;;;;;17.50;10.77;;;;;;;14.50;46.17;101237.06;5016896;28;20448;-65
2021/04/21 10:44:19;;;;;;;14.50;12.90;;;;;;;14.28;46.90;101246.63;5015602;28;20190;-65
2021/04/21 10:46:58;;;;;;;17.10;14.50;;;;;;;15.17;43.99;101248.47;5015075;28;20455;-65
2021/04/21 10:49:58;;;;;;;8.37;7.57;;;;;;;15.29;42.16;101240.56;5018851;28;20440;-66
2021/04/21 10:52:26;;;;;;;8.40;6.83;;;;;;;15.96;40.12;101243.88;5017324;28;20871;-66
2021/04/21 10:55:09;;;;;;;9.30;6.30;;;;;;;15.86;39.78;101241.31;5013700;28;20689;-66
2021/04/21 10:57:36;;;;;;;7.93;6.30;;;;;;;17.08;37.63;101227.38;5019506;28;20830;-66
2021/04/21 11:00:40;;;;;;;7.80;6.87;;;;;;;17.74;36.47;101229.28;5020343;28;20400;-66
2021/04/21 11:03:11;;;;;;;10.53;6.60;;;;;;;17.81;36.25;101230.06;4965486;28;20482;-66
2021/04/21 11:05:38;;;;;;;6.57;5.80;;;;;;;17.48;36.13;101219.03;5008870;28;20427;-65
2021/04/21 11:08:09;;;;;;;9.63;6.13;;;;;;;16.26;38.95;101231.44;5020140;28;20442;-66
2021/04/21 11:10:50;;;;;;;6.80;6.13;;;;;;;15.92;39.33;101238.66;5001201;28;20444;-65
2021/04/21 11:13:36;;;;;;;6.53;5.90;;;;;;;15.75;39.62;101242.22;5019367;28;20512;-65
2021/04/21 11:16:05;;;;;;;7.03;6.30;;;;;;;16.26;39.52;101231.44;5019262;28;20915;-66
2021/04/21 11:18:31;;;;;;;6.00;5.20;;;;;;;16.42;37.16;101232.22;5019180;28;20759;-65
2021/04/21 11:21:10;;;;;;;6.10;5.10;;;;;;;16.28;38.32;101229.69;5019119;28;20408;-65
2021/04/21 11:24:00;;;;;;;5.80;5.20;;;;;;;16.58;37.48;101224.25;5020402;28;20595;-65
2021/04/21 11:26:26;;;;;;;7.63;4.70;;;;;;;17.10;36.51;101231.75;5019878;28;20420;-66
2021/04/21 11:28:56;;;;;;;12.40;8.07;;;;;;;18.84;33.18;101222.44;5019755;28;20730;-66
2021/04/21 11:31:22;;;;;;;9.30;5.30;;;;;;;17.41;34.93;101233.16;5020166;28;20178;-67
2021/04/21 11:33:49;;;;;;;6.60;4.43;;;;;;;16.62;36.14;101231.22;5018604;28;20513;-65